Terminal Aerodrome Forecast
Issued by NWS

Home | Current Version | Previous Version | Text Only | Print | Product List | Glossary On
Versions: 1 2 3 4 5 6 7 8 9 10 11 12 13 14
000
FTUS45 KVEF 301100
TAFDAG
TAF
KDAG 301120Z 3012/3112 27005KT P6SM -SHRA FEW050 OVC060
     FM301700 VRB06KT P6SM -SHRA FEW015 SCT030 OVC050
      TEMPO 3022/3102 4SM RA SCT015 BKN030
     FM310300 27007KT P6SM VCSH FEW015 OVC040=

USA.gov is the U.S. government's official web portal to all federal, state and local government web resources and services.